sensor_id;sensor_type;location;lat;lon;timestamp;pressure;altitude;pressure_sealevel;temperature;humidity
52927;BME280;40783;49.710;8.842;2023-04-05T00:01:47;99750.34;;;1.55;87.20
52927;BME280;40783;49.710;8.842;2023-04-05T00:04:14;99751.94;;;1.58;86.93
52927;BME280;40783;49.710;8.842;2023-04-05T00:06:44;99751.28;;;1.54;86.06
52927;BME280;40783;49.710;8.842;2023-04-05T00:09:10;99758.59;;;1.49;85.81
52927;BME280;40783;49.710;8.842;2023-04-05T00:11:37;99760.13;;;1.53;86.08
52927;BME280;40783;49.710;8.842;2023-04-05T00:14:05;99749.41;;;1.56;85.52
52927;BME280;40783;49.710;8.842;2023-04-05T00:16:30;99755.50;;;1.57;85.88
52927;BME280;40783;49.710;8.842;2023-04-05T00:18:57;99754.69;;;1.56;85.42
52927;BME280;40783;49.710;8.842;2023-04-05T00:21:24;99744.19;;;1.55;86.34
52927;BME280;40783;49.710;8.842;2023-04-05T00:23:51;99746.78;;;1.56;86.02
52927;BME280;40783;49.710;8.842;2023-04-05T00:26:20;99743.28;;;1.40;86.68
52927;BME280;40783;49.710;8.842;2023-04-05T00:28:48;99743.63;;;1.33;87.38
52927;BME280;40783;49.710;8.842;2023-04-05T00:31:14;99736.03;;;1.27;88.19
52927;BME280;40783;49.710;8.842;2023-04-05T00:33:43;99747.84;;;1.20;89.00
52927;BME280;40783;49.710;8.842;2023-04-05T00:36:12;99738.00;;;1.24;88.01
52927;BME280;40783;49.710;8.842;2023-04-05T00:38:39;99739.00;;;1.21;88.80
52927;BME280;40783;49.710;8.842;2023-04-05T00:41:07;99733.75;;;1.21;88.52
52927;BME280;40783;49.710;8.842;2023-04-05T00:43:34;99727.38;;;1.25;88.13
52927;BME280;40783;49.710;8.842;2023-04-05T00:46:04;99719.81;;;1.19;89.16
52927;BME280;40783;49.710;8.842;2023-04-05T00:48:32;99726.78;;;1.20;88.43
52927;BME280;40783;49.710;8.842;2023-04-05T00:51:01;99726.94;;;1.17;88.74
52927;BME280;40783;49.710;8.842;2023-04-05T00:53:26;99731.44;;;1.15;89.27
52927;BME280;40783;49.710;8.842;2023-04-05T00:55:52;99722.53;;;1.17;90.28
52927;BME280;40783;49.710;8.842;2023-04-05T00:58:21;99719.81;;;1.19;88.44
52927;BME280;40783;49.710;8.842;2023-04-05T01:01:20;99714.97;;;1.11;89.58
52927;BME280;40783;49.710;8.842;2023-04-05T01:03:52;99719.97;;;1.16;88.58
52927;BME280;40783;49.710;8.842;2023-04-05T01:09:32;99724.38;;;0.99;89.58
52927;BME280;40783;49.710;8.842;2023-04-05T01:12:05;99712.75;;;1.03;89.68
52927;BME280;40783;49.710;8.842;2023-04-05T01:14:44;99719.88;;;1.01;88.16
52927;BME280;40783;49.710;8.842;2023-04-05T01:17:12;99710.63;;;0.94;89.17
52927;BME280;40783;49.710;8.842;2023-04-05T01:19:37;99707.88;;;0.96;88.59
52927;BME280;40783;49.710;8.842;2023-04-05T01:22:48;99710.63;;;0.94;89.10
52927;BME280;40783;49.710;8.842;2023-04-05T01:30:59;99706.31;;;0.59;92.17
52927;BME280;40783;49.710;8.842;2023-04-05T01:38:32;99703.72;;;0.58;93.36
52927;BME280;40783;49.710;8.842;2023-04-05T01:40:57;99694.91;;;0.59;92.09
52927;BME280;40783;49.710;8.842;2023-04-05T01:43:23;99693.19;;;0.58;92.46
52927;BME280;40783;49.710;8.842;2023-04-05T01:45:48;99689.63;;;0.59;92.11
52927;BME280;40783;49.710;8.842;2023-04-05T01:48:16;99692.38;;;0.57;93.04
52927;BME280;40783;49.710;8.842;2023-04-05T01:50:41;99691.66;;;0.54;92.68
52927;BME280;40783;49.710;8.842;2023-04-05T01:53:07;99694.38;;;0.52;92.24
52927;BME280;40783;49.710;8.842;2023-04-05T01:55:34;99688.59;;;0.46;92.60
52927;BME280;40783;49.710;8.842;2023-04-05T01:58:00;99685.97;;;0.46;93.09
52927;BME280;40783;49.710;8.842;2023-04-05T02:00:25;99695.41;;;0.50;91.90
52927;BME280;40783;49.710;8.842;2023-04-05T02:02:54;99682.56;;;0.43;92.52
52927;BME280;40783;49.710;8.842;2023-04-05T02:05:22;99682.56;;;0.43;91.97
52927;BME280;40783;49.710;8.842;2023-04-05T02:07:47;99680.25;;;0.37;92.18
52927;BME280;40783;49.710;8.842;2023-04-05T02:10:16;99678.88;;;0.30;93.21
52927;BME280;40783;49.710;8.842;2023-04-05T02:12:41;99678.88;;;0.30;94.33
52927;BME280;40783;49.710;8.842;2023-04-05T02:15:07;99686.16;;;0.25;93.42
52927;BME280;40783;49.710;8.842;2023-04-05T02:17:32;99693.22;;;0.07;95.14
52927;BME280;40783;49.710;8.842;2023-04-05T02:20:04;99691.19;;;0.12;94.83
52927;BME280;40783;49.710;8.842;2023-04-05T02:22:31;99691.41;;;0.07;94.41
52927;BME280;40783;49.710;8.842;2023-04-05T02:24:58;99693.66;;;-0.03;95.06
52927;BME280;40783;49.710;8.842;2023-04-05T02:27:27;99690.81;;;0.02;94.44
52927;BME280;40783;49.710;8.842;2023-04-05T02:29:52;99681.34;;;0.16;92.53
52927;BME280;40783;49.710;8.842;2023-04-05T02:32:19;99689.25;;;0.16;92.58
52927;BME280;40783;49.710;8.842;2023-04-05T02:34:45;99672.06;;;0.26;91.47
52927;BME280;40783;49.710;8.842;2023-04-05T02:37:15;99673.63;;;0.30;91.05
52927;BME280;40783;49.710;8.842;2023-04-05T02:39:40;99677.97;;;0.13;91.65
52927;BME280;40783;49.710;8.842;2023-04-05T02:42:08;99683.41;;;-0.07;93.41
52927;BME280;40783;49.710;8.842;2023-04-05T02:44:35;99684.59;;;0.03;92.03
52927;BME280;40783;49.710;8.842;2023-04-05T02:47:03;99692.34;;;0.06;91.27
52927;BME280;40783;49.710;8.842;2023-04-05T02:49:28;99693.28;;;0.05;90.91
52927;BME280;40783;49.710;8.842;2023-04-05T02:51:55;99690.81;;;0.02;91.53
52927;BME280;40783;49.710;8.842;2023-04-05T02:54:23;99700.09;;;-0.08;92.83
52927;BME280;40783;49.710;8.842;2023-04-05T02:56:48;99685.16;;;-0.08;92.83
52927;BME280;40783;49.710;8.842;2023-04-05T02:59:14;99694.53;;;-0.02;92.11
52927;BME280;40783;49.710;8.842;2023-04-05T03:01:42;99687.88;;;-0.09;92.92
52927;BME280;40783;49.710;8.842;2023-04-05T03:04:11;99684.19;;;-0.05;92.36
52927;BME280;40783;49.710;8.842;2023-04-05T03:06:41;99691.28;;;-0.07;92.65
52927;BME280;40783;49.710;8.842;2023-04-05T03:09:10;99687.56;;;-0.03;91.35
52927;BME280;40783;49.710;8.842;2023-04-05T03:11:35;99695.69;;;-0.08;91.69
52927;BME280;40783;49.710;8.842;2023-04-05T03:14:00;99686.63;;;-0.20;92.10
52927;BME280;40783;49.710;8.842;2023-04-05T03:16:28;99685.63;;;-0.17;91.40
52927;BME280;40783;49.710;8.842;2023-04-05T03:18:55;99673.72;;;-0.24;92.08
52927;BME280;40783;49.710;8.842;2023-04-05T03:21:23;99680.59;;;-0.22;91.26
52927;BME280;40783;49.710;8.842;2023-04-05T03:23:50;99682.53;;;-0.25;92.14
52927;BME280;40783;49.710;8.842;2023-04-05T03:26:15;99678.13;;;-0.25;91.69
52927;BME280;40783;49.710;8.842;2023-04-05T03:28:41;99687.78;;;-0.25;91.59
52927;BME280;40783;49.710;8.842;2023-04-05T03:31:08;99684.00;;;-0.20;90.75
52927;BME280;40783;49.710;8.842;2023-04-05T03:33:35;99681.22;;;-0.17;89.85
52927;BME280;40783;49.710;8.842;2023-04-05T03:36:03;99682.94;;;-0.16;89.74
52927;BME280;40783;49.710;8.842;2023-04-05T03:38:28;99684.94;;;-0.21;90.10
52927;BME280;40783;49.710;8.842;2023-04-05T03:40:56;99674.41;;;-0.21;89.65
52927;BME280;40783;49.710;8.842;2023-04-05T03:43:21;99675.78;;;-0.31;90.68
52927;BME280;40783;49.710;8.842;2023-04-05T03:45:49;99677.50;;;-0.30;91.23
52927;BME280;40783;49.710;8.842;2023-04-05T03:48:15;99669.47;;;-0.27;89.92
52927;BME280;40783;49.710;8.842;2023-04-05T03:50:44;99666.84;;;-0.27;90.24
52927;BME280;40783;49.710;8.842;2023-04-05T03:53:10;99672.00;;;-0.25;90.07
52927;BME280;40783;49.710;8.842;2023-04-05T03:55:39;99661.66;;;-0.28;89.98
52927;BME280;40783;49.710;8.842;2023-04-05T03:58:05;99660.63;;;-0.43;90.72
52927;BME280;40783;49.710;8.842;2023-04-05T04:00:31;99655.63;;;-0.48;90.85
52927;BME280;40783;49.710;8.842;2023-04-05T04:02:56;99653.19;;;-0.53;91.56
52927;BME280;40783;49.710;8.842;2023-04-05T04:05:21;99661.56;;;-0.62;92.51
52927;BME280;40783;49.710;8.842;2023-04-05T04:07:47;99662.91;;;-0.72;93.29
52927;BME280;40783;49.710;8.842;2023-04-05T04:10:15;99663.13;;;-0.77;94.18
52927;BME280;40783;49.710;8.842;2023-04-05T04:12:44;99656.75;;;-0.71;93.26
52927;BME280;40783;49.710;8.842;2023-04-05T04:15:10;99662.63;;;-0.66;93.44
52927;BME280;40783;49.710;8.842;2023-04-05T04:17:36;99665.25;;;-0.66;93.68
52927;BME280;40783;49.710;8.842;2023-04-05T04:20:03;99660.91;;;-0.67;93.94
52927;BME280;40783;49.710;8.842;2023-04-05T04:22:36;99659.50;;;-0.75;93.83
52927;BME280;40783;49.710;8.842;2023-04-05T04:25:04;99659.22;;;-0.68;93.04
52927;BME280;40783;49.710;8.842;2023-04-05T04:27:30;99654.94;;;-0.71;93.21
52927;BME280;40783;49.710;8.842;2023-04-05T04:29:58;99657.50;;;-0.69;92.54
52927;BME280;40783;49.710;8.842;2023-04-05T04:32:28;99648.00;;;-0.72;92.28
52927;BME280;40783;49.710;8.842;2023-04-05T04:35:15;99647.16;;;-0.72;91.92
52927;BME280;40783;49.710;8.842;2023-04-05T04:37:46;99651.00;;;-0.80;92.02
52927;BME280;40783;49.710;8.842;2023-04-05T04:40:17;99653.56;;;-0.97;92.68
52927;BME280;40783;49.710;8.842;2023-04-05T04:42:43;99644.44;;;-1.08;93.37
52927;BME280;40783;49.710;8.842;2023-04-05T04:45:15;99649.09;;;-1.14;94.18
52927;BME280;40783;49.710;8.842;2023-04-05T04:47:47;99652.66;;;-1.35;96.37
52927;BME280;40783;49.710;8.842;2023-04-05T04:50:17;99645.34;;;-1.47;98.69
52927;BME280;40783;49.710;8.842;2023-04-05T04:52:44;99655.16;;;-1.31;97.70
52927;BME280;40783;49.710;8.842;2023-04-05T04:55:14;99662.09;;;-1.30;98.31
52927;BME280;40783;49.710;8.842;2023-04-05T04:57:40;99651.31;;;-1.24;97.15
52927;BME280;40783;49.710;8.842;2023-04-05T05:00:08;99650.91;;;-1.15;96.01
52927;BME280;40783;49.710;8.842;2023-04-05T05:02:42;99649.19;;;-1.16;95.90
52927;BME280;40783;49.710;8.842;2023-04-05T05:05:11;99647.22;;;-1.11;95.39
52927;BME280;40783;49.710;8.842;2023-04-05T05:07:38;99655.56;;;-1.02;95.12
52927;BME280;40783;49.710;8.842;2023-04-05T05:10:04;99645.63;;;-0.96;94.35
52927;BME280;40783;49.710;8.842;2023-04-05T05:12:30;99653.13;;;-0.88;93.17
52927;BME280;40783;49.710;8.842;2023-04-05T05:14:59;99645.84;;;-0.81;93.16
52927;BME280;40783;49.710;8.842;2023-04-05T05:17:24;99653.13;;;-0.88;93.83
52927;BME280;40783;49.710;8.842;2023-04-05T05:19:50;99653.75;;;-0.83;93.85
52927;BME280;40783;49.710;8.842;2023-04-05T05:22:16;99659.50;;;-0.75;93.46
52927;BME280;40783;49.710;8.842;2023-04-05T05:24:43;99657.06;;;-0.60;91.88
52927;BME280;40783;49.710;8.842;2023-04-05T05:27:08;99656.31;;;-0.45;90.82
52927;BME280;40783;49.710;8.842;2023-04-05T05:29:33;99656.41;;;-0.28;90.30
52927;BME280;40783;49.710;8.842;2023-04-05T05:32:01;99653.56;;;-0.06;88.73
52927;BME280;40783;49.710;8.842;2023-04-05T05:34:29;99654.16;;;-0.01;87.95
52927;BME280;40783;49.710;8.842;2023-04-05T05:36:55;99659.25;;;0.02;87.37
52927;BME280;40783;49.710;8.842;2023-04-05T05:39:20;99659.59;;;-0.04;87.86
52927;BME280;40783;49.710;8.842;2023-04-05T05:41:48;99645.66;;;-0.06;88.71
52927;BME280;40783;49.710;8.842;2023-04-05T05:44:14;99660.41;;;-0.04;88.88
52927;BME280;40783;49.710;8.842;2023-04-05T05:46:41;99658.66;;;-0.03;89.70
52927;BME280;40783;49.710;8.842;2023-04-05T05:49:11;99658.47;;;0.18;88.77
52927;BME280;40783;49.710;8.842;2023-04-05T05:51:37;99656.44;;;0.23;88.82
52927;BME280;40783;49.710;8.842;2023-04-05T05:54:04;99656.97;;;0.29;88.44
52927;BME280;40783;49.710;8.842;2023-04-05T05:56:32;99663.69;;;0.53;87.71
52927;BME280;40783;49.710;8.842;2023-04-05T05:58:57;99661.75;;;0.72;85.98
52927;BME280;40783;49.710;8.842;2023-04-05T06:01:25;99667.56;;;0.95;85.26
52927;BME280;40783;49.710;8.842;2023-04-05T06:03:52;99668.47;;;1.26;83.33
52927;BME280;40783;49.710;8.842;2023-04-05T06:06:17;99665.47;;;1.48;81.77
52927;BME280;40783;49.710;8.842;2023-04-05T06:08:43;99661.50;;;1.72;80.46
52927;BME280;40783;49.710;8.842;2023-04-05T06:11:18;99660.97;;;1.51;81.24
52927;BME280;40783;49.710;8.842;2023-04-05T06:13:43;99669.50;;;1.24;82.42
52927;BME280;40783;49.710;8.842;2023-04-05T06:16:09;99664.91;;;1.11;82.95
52927;BME280;40783;49.710;8.842;2023-04-05T06:18:36;99667.22;;;1.01;83.85
52927;BME280;40783;49.710;8.842;2023-04-05T06:21:06;99666.94;;;0.90;85.42
52927;BME280;40783;49.710;8.842;2023-04-05T06:23:31;99665.25;;;0.73;85.60
52927;BME280;40783;49.710;8.842;2023-04-05T06:25:59;99668.53;;;0.77;86.43
52927;BME280;40783;49.710;8.842;2023-04-05T06:28:27;99665.41;;;0.86;85.23
52927;BME280;40783;49.710;8.842;2023-04-05T06:30:54;99664.22;;;0.76;84.61
52927;BME280;40783;49.710;8.842;2023-04-05T06:33:19;99665.91;;;1.09;84.16
52927;BME280;40783;49.710;8.842;2023-04-05T06:35:45;99665.06;;;1.40;81.30
52927;BME280;40783;49.710;8.842;2023-04-05T06:38:10;99665.75;;;2.05;78.51
52927;BME280;40783;49.710;8.842;2023-04-05T06:40:38;99662.03;;;2.38;76.54
52927;BME280;40783;49.710;8.842;2023-04-05T06:43:03;99654.63;;;3.01;74.04
52927;BME280;40783;49.710;8.842;2023-04-05T06:45:31;99655.69;;;3.26;71.40
52927;BME280;40783;49.710;8.842;2023-04-05T06:47:56;99652.75;;;3.58;69.55
52927;BME280;40783;49.710;8.842;2023-04-05T06:50:22;99647.91;;;3.65;68.93
52927;BME280;40783;49.710;8.842;2023-04-05T06:52:49;99653.56;;;3.46;69.69
52927;BME280;40783;49.710;8.842;2023-04-05T06:55:15;99652.56;;;3.61;68.56
52927;BME280;40783;49.710;8.842;2023-04-05T06:57:40;99652.94;;;3.55;68.36
52927;BME280;40783;49.710;8.842;2023-04-05T07:00:08;99657.38;;;3.54;69.54
52927;BME280;40783;49.710;8.842;2023-04-05T07:02:38;99659.97;;;3.69;70.26
52927;BME280;40783;49.710;8.842;2023-04-05T07:05:03;99656.03;;;3.62;70.10
52927;BME280;40783;49.710;8.842;2023-04-05T07:07:32;99660.66;;;3.18;69.90
52927;BME280;40783;49.710;8.842;2023-04-05T07:10:00;99657.75;;;3.35;70.26
52927;BME280;40783;49.710;8.842;2023-04-05T07:12:25;99650.34;;;3.40;72.72
52927;BME280;40783;49.710;8.842;2023-04-05T07:14:50;99644.47;;;3.50;70.88
52927;BME280;40783;49.710;8.842;2023-04-05T07:17:16;99651.72;;;3.74;71.01
52927;BME280;40783;49.710;8.842;2023-04-05T07:19:43;99644.78;;;3.98;70.09
52927;BME280;40783;49.710;8.842;2023-04-05T07:22:08;99644.78;;;3.98;69.28
52927;BME280;40783;49.710;8.842;2023-04-05T07:24:34;99645.03;;;4.21;66.77
52927;BME280;40783;49.710;8.842;2023-04-05T07:27:02;99643.34;;;4.20;68.17
52927;BME280;40783;49.710;8.842;2023-04-05T07:29:28;99638.97;;;4.45;66.89
52927;BME280;40783;49.710;8.842;2023-04-05T07:31:53;99638.44;;;4.53;65.98
52927;BME280;40783;49.710;8.842;2023-04-05T07:34:18;99636.53;;;4.68;66.96
52927;BME280;40783;49.710;8.842;2023-04-05T07:36:46;99636.31;;;4.58;63.47
52927;BME280;40783;49.710;8.842;2023-04-05T07:39:11;99641.00;;;4.28;65.35
52927;BME280;40783;49.710;8.842;2023-04-05T07:41:39;99630.72;;;4.24;64.85
52927;BME280;40783;49.710;8.842;2023-04-05T07:44:04;99638.41;;;3.88;63.69
52927;BME280;40783;49.710;8.842;2023-04-05T07:46:30;99634.81;;;3.89;63.07
52927;BME280;40783;49.710;8.842;2023-04-05T07:48:55;99639.38;;;3.87;63.63
52927;BME280;40783;49.710;8.842;2023-04-05T07:51:22;99637.31;;;3.65;64.13
52927;BME280;40783;49.710;8.842;2023-04-05T07:53:47;99640.06;;;3.63;63.62
52927;BME280;40783;49.710;8.842;2023-04-05T07:56:16;99642.78;;;3.49;62.98
52927;BME280;40783;49.710;8.842;2023-04-05T07:58:41;99640.06;;;3.63;65.71
52927;BME280;40783;49.710;8.842;2023-04-05T08:01:09;99639.03;;;3.79;64.71
52927;BME280;40783;49.710;8.842;2023-04-05T08:03:38;99641.81;;;3.90;64.41
52927;BME280;40783;49.710;8.842;2023-04-05T08:06:14;99651.56;;;4.03;63.52
52927;BME280;40783;49.710;8.842;2023-04-05T08:08:44;99637.59;;;4.00;64.12
52927;BME280;40783;49.710;8.842;2023-04-05T08:11:10;99648.06;;;3.89;62.56
52927;BME280;40783;49.710;8.842;2023-04-05T08:13:40;99638.22;;;3.91;62.55
52927;BME280;40783;49.710;8.842;2023-04-05T08:16:07;99645.00;;;3.95;62.50
52927;BME280;40783;49.710;8.842;2023-04-05T08:18:32;99641.72;;;4.05;63.72
52927;BME280;40783;49.710;8.842;2023-04-05T08:21:00;99645.66;;;4.12;62.88
52927;BME280;40783;49.710;8.842;2023-04-05T08:23:25;99646.50;;;3.99;61.79
52927;BME280;40783;49.710;8.842;2023-04-05T08:25:51;99643.75;;;4.14;63.57
52927;BME280;40783;49.710;8.842;2023-04-05T08:28:17;99639.63;;;4.10;61.68
52927;BME280;40783;49.710;8.842;2023-04-05T08:30:42;99643.09;;;3.97;62.60
52927;BME280;40783;49.710;8.842;2023-04-05T08:33:07;99628.50;;;4.05;61.96
52927;BME280;40783;49.710;8.842;2023-04-05T08:35:36;99633.78;;;4.18;60.58
52927;BME280;40783;49.710;8.842;2023-04-05T08:38:02;99631.88;;;4.33;60.40
52927;BME280;40783;49.710;8.842;2023-04-05T08:40:39;99631.25;;;4.42;61.20
52927;BME280;40783;49.710;8.842;2023-04-05T08:43:33;99628.16;;;4.48;60.77
52927;BME280;40783;49.710;8.842;2023-04-05T08:46:07;99623.19;;;4.56;60.31
52927;BME280;40783;49.710;8.842;2023-04-05T08:48:34;99632.53;;;4.49;60.22
52927;BME280;40783;49.710;8.842;2023-04-05T08:51:02;99629.66;;;4.52;60.61
52927;BME280;40783;49.710;8.842;2023-04-05T08:53:31;99628.69;;;4.53;61.41
52927;BME280;40783;49.710;8.842;2023-04-05T08:56:01;99619.47;;;4.59;59.76
52927;BME280;40783;49.710;8.842;2023-04-05T08:58:27;99625.72;;;4.71;59.35
52927;BME280;40783;49.710;8.842;2023-04-05T09:00:54;99620.50;;;4.69;60.04
52927;BME280;40783;49.710;8.842;2023-04-05T09:03:36;99626.28;;;4.87;59.79
52927;BME280;40783;49.710;8.842;2023-04-05T09:06:08;99622.25;;;4.95;59.04
52927;BME280;40783;49.710;8.842;2023-04-05T09:08:37;99615.94;;;4.71;57.48
52927;BME280;40783;49.710;8.842;2023-04-05T09:11:02;99614.28;;;4.57;58.84
52927;BME280;40783;49.710;8.842;2023-04-05T09:13:27;99617.88;;;4.56;57.38
52927;BME280;40783;49.710;8.842;2023-04-05T09:15:53;99620.19;;;4.74;56.03
52927;BME280;40783;49.710;8.842;2023-04-05T09:18:19;99613.66;;;4.67;55.97
52927;BME280;40783;49.710;8.842;2023-04-05T09:20:46;99616.81;;;4.72;56.73
52927;BME280;40783;49.710;8.842;2023-04-05T09:23:14;99617.56;;;4.74;57.19
52927;BME280;40783;49.710;8.842;2023-04-05T09:25:40;99618.91;;;4.80;57.46
52927;BME280;40783;49.710;8.842;2023-04-05T09:28:07;99615.16;;;4.45;55.47
52927;BME280;40783;49.710;8.842;2023-04-05T09:30:34;99610.47;;;4.62;55.95
52927;BME280;40783;49.710;8.842;2023-04-05T09:33:02;99615.47;;;4.90;57.81
52927;BME280;40783;49.710;8.842;2023-04-05T09:35:30;99615.84;;;5.10;57.51
52927;BME280;40783;49.710;8.842;2023-04-05T09:38:02;99613.72;;;5.15;59.25
52927;BME280;40783;49.710;8.842;2023-04-05T09:40:45;99605.22;;;5.59;58.77
52927;BME280;40783;49.710;8.842;2023-04-05T09:43:12;99596.06;;;5.63;53.97
52927;BME280;40783;49.710;8.842;2023-04-05T09:45:42;99596.75;;;5.54;55.51
52927;BME280;40783;49.710;8.842;2023-04-05T09:48:08;99600.00;;;5.46;53.86
52927;BME280;40783;49.710;8.842;2023-04-05T09:50:39;99598.13;;;5.35;54.24
52927;BME280;40783;49.710;8.842;2023-04-05T09:53:12;99606.72;;;5.14;53.08
52927;BME280;40783;49.710;8.842;2023-04-05T09:55:41;99598.19;;;5.22;54.85
52927;BME280;40783;49.710;8.842;2023-04-05T09:58:19;99592.94;;;5.09;54.52
52927;BME280;40783;49.710;8.842;2023-04-05T10:00:49;99593.47;;;5.14;53.51
52927;BME280;40783;49.710;8.842;2023-04-05T10:03:18;99606.03;;;5.24;53.15
52927;BME280;40783;49.710;8.842;2023-04-05T10:05:43;99592.28;;;5.18;53.22
52927;BME280;40783;49.710;8.842;2023-04-05T10:08:13;99602.38;;;5.13;53.11
52927;BME280;40783;49.710;8.842;2023-04-05T10:10:43;99594.72;;;5.33;52.98
52927;BME280;40783;49.710;8.842;2023-04-05T10:13:11;99588.75;;;5.42;53.24
52927;BME280;40783;49.710;8.842;2023-04-05T10:15:42;99598.19;;;5.46;53.71
52927;BME280;40783;49.710;8.842;2023-04-05T10:18:14;99602.06;;;5.54;52.23
52927;BME280;40783;49.710;8.842;2023-04-05T10:20:44;99590.41;;;5.56;53.85
52927;BME280;40783;49.710;8.842;2023-04-05T10:23:24;99591.22;;;5.57;51.78
52927;BME280;40783;49.710;8.842;2023-04-05T10:28:32;99589.31;;;5.59;50.01
52927;BME280;40783;49.710;8.842;2023-04-05T10:33:54;99580.28;;;5.37;52.39
52927;BME280;40783;49.710;8.842;2023-04-05T10:36:59;99584.19;;;5.44;52.99
52927;BME280;40783;49.710;8.842;2023-04-05T10:42:20;99572.56;;;5.70;52.64
52927;BME280;40783;49.710;8.842;2023-04-05T10:44:51;99573.47;;;5.82;50.98
52927;BME280;40783;49.710;8.842;2023-04-05T10:47:18;99562.09;;;5.68;50.09
52927;BME280;40783;49.710;8.842;2023-04-05T10:49:52;99567.16;;;5.71;50.49
52927;BME280;40783;49.710;8.842;2023-04-05T10:52:18;99556.59;;;5.58;50.41
52927;BME280;40783;49.710;8.842;2023-04-05T10:54:47;99563.53;;;5.72;50.89
52927;BME280;40783;49.710;8.842;2023-04-05T10:57:15;99563.66;;;5.82;49.82
52927;BME280;40783;49.710;8.842;2023-04-05T10:59:45;99562.13;;;5.79;50.45
52927;BME280;40783;49.710;8.842;2023-04-05T11:02:13;99560.41;;;5.78;51.59
52927;BME280;40783;49.710;8.842;2023-04-05T11:04:39;99554.38;;;5.76;52.72
52927;BME280;40783;49.710;8.842;2023-04-05T11:07:14;99552.22;;;5.82;53.04
52927;BME280;40783;49.710;8.842;2023-04-05T11:09:59;99550.53;;;5.81;52.78
52927;BME280;40783;49.710;8.842;2023-04-05T11:23:07;99542.63;;;6.15;49.95
52927;BME280;40783;49.710;8.842;2023-04-05T11:25:36;99537.31;;;6.15;48.24
52927;BME280;40783;49.710;8.842;2023-04-05T11:28:04;99532.50;;;6.20;49.21
52927;BME280;40783;49.710;8.842;2023-04-05T11:30:54;99532.84;;;6.15;50.98
52927;BME280;40783;49.710;8.842;2023-04-05T11:36:03;99527.78;;;6.35;48.38
52927;BME280;40783;49.710;8.842;2023-04-05T11:38:29;99523.91;;;6.28;47.30
52927;BME280;40783;49.710;8.842;2023-04-05T11:41:13;99524.75;;;6.39;52.12
52927;BME280;40783;49.710;8.842;2023-04-05T11:43:44;99522.94;;;6.40;50.25
52927;BME280;40783;49.710;8.842;2023-04-05T11:46:12;99516.78;;;6.39;50.39
52927;BME280;40783;49.710;8.842;2023-04-05T11:48:39;99514.50;;;6.46;50.29
52927;BME280;40783;49.710;8.842;2023-04-05T11:51:07;99509.50;;;6.53;50.33
52927;BME280;40783;49.710;8.842;2023-04-05T11:53:34;99501.53;;;6.64;50.90
52927;BME280;40783;49.710;8.842;2023-04-05T11:56:06;99502.00;;;6.58;48.60
52927;BME280;40783;49.710;8.842;2023-04-05T11:58:33;99502.97;;;6.68;49.28
52927;BME280;40783;49.710;8.842;2023-04-05T12:01:03;99505.69;;;6.90;49.55
52927;BME280;40783;49.710;8.842;2023-04-05T12:03:29;99506.38;;;6.59;47.75
52927;BME280;40783;49.710;8.842;2023-04-05T12:05:57;99502.97;;;6.68;50.67
52927;BME280;40783;49.710;8.842;2023-04-05T12:11:09;99494.97;;;6.80;47.60
52927;BME280;40783;49.710;8.842;2023-04-05T12:13:39;99490.13;;;6.85;47.64
52927;BME280;40783;49.710;8.842;2023-04-05T12:16:06;99499.25;;;6.92;47.41
52927;BME280;40783;49.710;8.842;2023-04-05T12:18:34;99492.91;;;6.72;47.73
52927;BME280;40783;49.710;8.842;2023-04-05T12:21:04;99486.63;;;6.73;49.09
52927;BME280;40783;49.710;8.842;2023-04-05T12:23:30;99486.13;;;7.12;47.83
52927;BME280;40783;49.710;8.842;2023-04-05T12:25:56;99476.94;;;7.16;47.49
52927;BME280;40783;49.710;8.842;2023-04-05T12:28:22;99477.19;;;7.13;46.99
52927;BME280;40783;49.710;8.842;2023-04-05T12:30:59;99480.38;;;6.95;45.94
52927;BME280;40783;49.710;8.842;2023-04-05T12:33:26;99476.03;;;6.94;46.67
52927;BME280;40783;49.710;8.842;2023-04-05T12:35:52;99478.69;;;6.94;48.12
52927;BME280;40783;49.710;8.842;2023-04-05T12:38:20;99470.72;;;6.94;46.66
52927;BME280;40783;49.710;8.842;2023-04-05T12:40:45;99467.06;;;7.07;47.56
52927;BME280;40783;49.710;8.842;2023-04-05T12:43:11;99453.81;;;7.17;47.35
52927;BME280;40783;49.710;8.842;2023-04-05T12:45:36;99466.03;;;6.98;46.54
52927;BME280;40783;49.710;8.842;2023-04-05T12:48:08;99460.94;;;6.95;46.79
52927;BME280;40783;49.710;8.842;2023-04-05T12:50:35;99460.75;;;7.08;46.54
52927;BME280;40783;49.710;8.842;2023-04-05T12:53:06;99457.28;;;7.28;45.70
52927;BME280;40783;49.710;8.842;2023-04-05T12:55:41;99455.59;;;7.27;45.75
52927;BME280;40783;49.710;8.842;2023-04-05T12:58:06;99453.41;;;7.33;43.93
52927;BME280;40783;49.710;8.842;2023-04-05T13:00:32;99446.91;;;7.47;46.08
52927;BME280;40783;49.710;8.842;2023-04-05T13:02:59;99436.63;;;7.63;43.97
52927;BME280;40783;49.710;8.842;2023-04-05T13:05:27;99437.72;;;7.61;44.94
52927;BME280;40783;49.710;8.842;2023-04-05T13:07:52;99433.53;;;7.37;43.55
52927;BME280;40783;49.710;8.842;2023-04-05T13:10:19;99439.47;;;7.50;46.62
52927;BME280;40783;49.710;8.842;2023-04-05T13:12:47;99423.50;;;7.50;44.43
52927;BME280;40783;49.710;8.842;2023-04-05T13:15:15;99429.16;;;7.57;44.03
52927;BME280;40783;49.710;8.842;2023-04-05T13:17:42;99426.72;;;7.75;46.80
52927;BME280;40783;49.710;8.842;2023-04-05T13:20:16;99427.25;;;7.69;45.93
52927;BME280;40783;49.710;8.842;2023-04-05T13:22:42;99422.97;;;7.56;46.56
52927;BME280;40783;49.710;8.842;2023-04-05T13:25:08;99420.66;;;7.42;44.43
52927;BME280;40783;49.710;8.842;2023-04-05T13:27:35;99421.22;;;7.36;44.93
52927;BME280;40783;49.710;8.842;2023-04-05T13:30:01;99422.91;;;7.37;45.36
52927;BME280;40783;49.710;8.842;2023-04-05T13:32:26;99412.97;;;7.39;44.81
52927;BME280;40783;49.710;8.842;2023-04-05T13:34:51;99407.94;;;7.46;45.47
52927;BME280;40783;49.710;8.842;2023-04-05T13:37:19;99410.63;;;7.46;45.98
52927;BME280;40783;49.710;8.842;2023-04-05T13:39:44;99401.50;;;7.48;44.91
52927;BME280;40783;49.710;8.842;2023-04-05T13:42:10;99400.38;;;7.41;44.65
52927;BME280;40783;49.710;8.842;2023-04-05T13:44:35;99403.81;;;7.32;43.90
52927;BME280;40783;49.710;8.842;2023-04-05T13:47:04;99399.94;;;7.36;43.09
52927;BME280;40783;49.710;8.842;2023-04-05T13:49:29;99399.94;;;7.36;44.45
52927;BME280;40783;49.710;8.842;2023-04-05T13:51:57;99398.06;;;7.57;44.88